sensor_id;sensor_type;location;lat;lon;timestamp;pressure;altitude;pressure_sealevel;temperature;humidity
43298;BME280;28892;55.640;37.532;2023-07-29T00:02:15;97784.00;;;18.14;69.39
43298;BME280;28892;55.640;37.532;2023-07-29T00:04:41;97787.50;;;18.20;69.03
43298;BME280;28892;55.640;37.532;2023-07-29T00:07:07;97795.28;;;18.22;68.43
43298;BME280;28892;55.640;37.532;2023-07-29T00:09:33;97799.31;;;18.19;68.60
43298;BME280;28892;55.640;37.532;2023-07-29T00:11:58;97799.84;;;18.16;69.04
43298;BME280;28892;55.640;37.532;2023-07-29T00:14:27;97807.38;;;18.19;69.03
43298;BME280;28892;55.640;37.532;2023-07-29T00:16:53;97810.34;;;18.18;69.09
43298;BME280;28892;55.640;37.532;2023-07-29T00:19:21;97813.53;;;18.09;69.11
43298;BME280;28892;55.640;37.532;2023-07-29T00:21:49;97804.44;;;18.15;69.29
43298;BME280;28892;55.640;37.532;2023-07-29T00:24:15;97800.66;;;18.22;68.89
43298;BME280;28892;55.640;37.532;2023-07-29T00:26:40;97801.19;;;18.24;68.30
43298;BME280;28892;55.640;37.532;2023-07-29T00:29:06;97800.13;;;18.25;68.79
43298;BME280;28892;55.640;37.532;2023-07-29T00:31:32;97802.56;;;18.21;68.62
43298;BME280;28892;55.640;37.532;2023-07-29T00:33:58;97798.25;;;18.25;68.32
43298;BME280;28892;55.640;37.532;2023-07-29T00:36:24;97797.19;;;18.32;68.35
43298;BME280;28892;55.640;37.532;2023-07-29T00:38:50;97793.41;;;18.27;67.90
43298;BME280;28892;55.640;37.532;2023-07-29T00:41:19;97792.34;;;18.39;67.79
43298;BME280;28892;55.640;37.532;2023-07-29T00:43:46;97774.09;;;18.41;67.38
43298;BME280;28892;55.640;37.532;2023-07-29T00:46:12;97774.91;;;18.26;67.66
43298;BME280;28892;55.640;37.532;2023-07-29T00:48:38;97777.56;;;18.26;67.79
43298;BME280;28892;55.640;37.532;2023-07-29T00:51:04;97776.50;;;18.22;67.55
43298;BME280;28892;55.640;37.532;2023-07-29T00:53:31;97772.50;;;18.35;67.02
43298;BME280;28892;55.640;37.532;2023-07-29T00:55:57;97771.41;;;18.15;67.37
43298;BME280;28892;55.640;37.532;2023-07-29T00:58:23;97777.31;;;18.17;67.34
43298;BME280;28892;55.640;37.532;2023-07-29T01:00:50;97788.84;;;18.12;67.51
43298;BME280;28892;55.640;37.532;2023-07-29T01:03:18;97781.63;;;18.13;68.13
43298;BME280;28892;55.640;37.532;2023-07-29T01:06:01;97775.47;;;18.28;67.67
43298;BME280;28892;55.640;37.532;2023-07-29T01:08:55;97775.16;;;18.04;68.14
43298;BME280;28892;55.640;37.532;2023-07-29T01:11:43;97763.63;;;18.13;67.86
43298;BME280;28892;55.640;37.532;2023-07-29T01:14:41;97757.75;;;18.27;66.91
43298;BME280;28892;55.640;37.532;2023-07-29T01:17:15;97756.91;;;18.06;67.58
43298;BME280;28892;55.640;37.532;2023-07-29T01:19:59;97752.59;;;17.99;67.20
43298;BME280;28892;55.640;37.532;2023-07-29T01:22:27;97748.03;;;17.95;67.31
43298;BME280;28892;55.640;37.532;2023-07-29T01:24:55;97741.28;;;17.87;67.33
43298;BME280;28892;55.640;37.532;2023-07-29T01:27:20;97734.34;;;17.81;67.90
43298;BME280;28892;55.640;37.532;2023-07-29T01:29:46;97747.75;;;17.81;68.14
43298;BME280;28892;55.640;37.532;2023-07-29T01:32:32;97743.47;;;17.95;67.76
43298;BME280;28892;55.640;37.532;2023-07-29T01:35:09;97743.44;;;17.80;67.56
43298;BME280;28892;55.640;37.532;2023-07-29T01:37:37;97754.47;;;17.83;67.74
43298;BME280;28892;55.640;37.532;2023-07-29T01:40:05;97747.75;;;17.81;67.49
43298;BME280;28892;55.640;37.532;2023-07-29T01:42:33;97740.78;;;17.80;67.20
43298;BME280;28892;55.640;37.532;2023-07-29T01:44:59;97729.50;;;17.78;67.04
43298;BME280;28892;55.640;37.532;2023-07-29T01:47:25;97730.31;;;17.83;66.99
43298;BME280;28892;55.640;37.532;2023-07-29T01:49:54;97724.13;;;17.72;66.95
43298;BME280;28892;55.640;37.532;2023-07-29T01:52:20;97737.53;;;17.72;67.00
43298;BME280;28892;55.640;37.532;2023-07-29T01:54:46;97732.16;;;17.62;67.39
43298;BME280;28892;55.640;37.532;2023-07-29T01:57:12;97728.13;;;17.65;67.14
43298;BME280;28892;55.640;37.532;2023-07-29T01:59:37;97747.47;;;17.72;67.33
43298;BME280;28892;55.640;37.532;2023-07-29T02:02:03;97739.13;;;17.73;67.06
43298;BME280;28892;55.640;37.532;2023-07-29T02:04:29;97743.44;;;17.69;67.32
43298;BME280;28892;55.640;37.532;2023-07-29T02:06:55;97755.22;;;17.68;67.28
43298;BME280;28892;55.640;37.532;2023-07-29T02:09:21;97765.66;;;17.70;67.04
43298;BME280;28892;55.640;37.532;2023-07-29T02:11:47;97774.00;;;17.68;67.87
43298;BME280;28892;55.640;37.532;2023-07-29T02:14:13;97783.63;;;17.64;67.89
43298;BME280;28892;55.640;37.532;2023-07-29T02:16:39;97783.34;;;17.60;67.52
43298;BME280;28892;55.640;37.532;2023-07-29T02:19:24;97779.91;;;17.76;67.41
43298;BME280;28892;55.640;37.532;2023-07-29T02:21:50;97788.50;;;17.78;67.39
43298;BME280;28892;55.640;37.532;2023-07-29T02:24:16;97795.47;;;17.79;67.38
43298;BME280;28892;55.640;37.532;2023-07-29T02:26:42;97794.66;;;17.78;67.40
43298;BME280;28892;55.640;37.532;2023-07-29T02:29:08;97799.47;;;17.76;67.16
43298;BME280;28892;55.640;37.532;2023-07-29T02:31:34;97791.97;;;17.73;67.80
43298;BME280;28892;55.640;37.532;2023-07-29T02:34:01;97790.63;;;17.76;67.52
43298;BME280;28892;55.640;37.532;2023-07-29T02:36:27;97799.78;;;17.80;67.40
43298;BME280;28892;55.640;37.532;2023-07-29T02:38:55;97802.69;;;17.73;68.82
43298;BME280;28892;55.640;37.532;2023-07-29T02:41:21;97789.81;;;17.70;68.18
43298;BME280;28892;55.640;37.532;2023-07-29T02:43:49;97783.38;;;17.71;68.20
43298;BME280;28892;55.640;37.532;2023-07-29T02:46:23;97785.81;;;17.78;68.16
43298;BME280;28892;55.640;37.532;2023-07-29T02:49:26;97756.84;;;17.74;68.11
43298;BME280;28892;55.640;37.532;2023-07-29T02:51:52;97742.63;;;17.69;68.16
43298;BME280;28892;55.640;37.532;2023-07-29T02:54:18;97759.78;;;17.63;69.00
43298;BME280;28892;55.640;37.532;2023-07-29T02:56:44;97763.00;;;17.65;68.76
43298;BME280;28892;55.640;37.532;2023-07-29T02:59:09;97757.63;;;17.65;69.04
43298;BME280;28892;55.640;37.532;2023-07-29T03:01:35;97750.38;;;17.65;68.89
43298;BME280;28892;55.640;37.532;2023-07-29T03:04:01;97753.88;;;17.66;68.24
43298;BME280;28892;55.640;37.532;2023-07-29T03:06:35;97746.66;;;17.77;68.66
43298;BME280;28892;55.640;37.532;2023-07-29T03:09:01;97743.69;;;17.68;68.06
43298;BME280;28892;55.640;37.532;2023-07-29T03:11:27;97730.78;;;17.59;68.12
43298;BME280;28892;55.640;37.532;2023-07-29T03:13:53;97733.72;;;17.53;69.34
43298;BME280;28892;55.640;37.532;2023-07-29T03:16:36;97723.31;;;17.62;68.22
43298;BME280;28892;55.640;37.532;2023-07-29T03:19:01;97720.59;;;17.51;69.56
43298;BME280;28892;55.640;37.532;2023-07-29T03:21:28;97738.28;;;17.57;69.01
43298;BME280;28892;55.640;37.532;2023-07-29T03:23:54;97724.34;;;17.60;68.29
43298;BME280;28892;55.640;37.532;2023-07-29T03:26:19;97737.47;;;17.52;68.99
43298;BME280;28892;55.640;37.532;2023-07-29T03:28:45;97733.97;;;17.46;69.32
43298;BME280;28892;55.640;37.532;2023-07-29T03:31:11;97722.72;;;17.44;69.08
43298;BME280;28892;55.640;37.532;2023-07-29T03:33:37;97727.81;;;17.35;69.04
43298;BME280;28892;55.640;37.532;2023-07-29T03:36:06;97730.47;;;17.40;69.10
43298;BME280;28892;55.640;37.532;2023-07-29T03:38:32;97726.44;;;17.38;69.01
43298;BME280;28892;55.640;37.532;2023-07-29T03:41:09;97718.66;;;17.31;69.28
43298;BME280;28892;55.640;37.532;2023-07-29T03:43:35;97711.16;;;17.28;69.46
43298;BME280;28892;55.640;37.532;2023-07-29T03:46:01;97706.91;;;17.37;69.04
43298;BME280;28892;55.640;37.532;2023-07-29T03:48:32;97703.66;;;17.25;69.26
43298;BME280;28892;55.640;37.532;2023-07-29T03:50:57;97699.91;;;17.26;69.77
43298;BME280;28892;55.640;37.532;2023-07-29T03:53:23;97703.09;;;17.23;70.09
43298;BME280;28892;55.640;37.532;2023-07-29T03:55:49;97693.22;;;17.34;69.28
43298;BME280;28892;55.640;37.532;2023-07-29T03:58:15;97690.78;;;17.32;69.48
43298;BME280;28892;55.640;37.532;2023-07-29T04:00:41;97689.19;;;17.26;69.89
43298;BME280;28892;55.640;37.532;2023-07-29T04:03:08;97694.00;;;17.24;69.97
43298;BME280;28892;55.640;37.532;2023-07-29T04:05:34;97690.50;;;17.23;69.90
43298;BME280;28892;55.640;37.532;2023-07-29T04:08:00;97684.63;;;17.31;69.58
43298;BME280;28892;55.640;37.532;2023-07-29T04:10:26;97681.13;;;17.31;69.27
43298;BME280;28892;55.640;37.532;2023-07-29T04:12:54;97680.59;;;17.29;69.81
43298;BME280;28892;55.640;37.532;2023-07-29T04:15:20;97679.78;;;17.18;69.69
43298;BME280;28892;55.640;37.532;2023-07-29T04:17:46;97690.78;;;17.27;69.82
43298;BME280;28892;55.640;37.532;2023-07-29T04:20:12;97666.09;;;17.20;69.58
43298;BME280;28892;55.640;37.532;2023-07-29T04:22:38;97670.97;;;17.28;69.66
43298;BME280;28892;55.640;37.532;2023-07-29T04:25:04;97686.75;;;17.24;69.83
43298;BME280;28892;55.640;37.532;2023-07-29T04:27:31;97687.56;;;17.25;69.90
43298;BME280;28892;55.640;37.532;2023-07-29T04:29:57;97685.72;;;17.30;69.86
43298;BME280;28892;55.640;37.532;2023-07-29T04:32:23;97685.72;;;17.36;69.75
43298;BME280;28892;55.640;37.532;2023-07-29T04:34:48;97690.31;;;17.45;68.85
43298;BME280;28892;55.640;37.532;2023-07-29T04:37:14;97690.81;;;17.37;69.18
43298;BME280;28892;55.640;37.532;2023-07-29T04:39:40;97690.81;;;17.37;69.46
43298;BME280;28892;55.640;37.532;2023-07-29T04:42:06;97699.09;;;17.30;69.32
43298;BME280;28892;55.640;37.532;2023-07-29T04:44:32;97704.47;;;17.30;69.56
43298;BME280;28892;55.640;37.532;2023-07-29T04:46:57;97709.56;;;17.37;69.12
43298;BME280;28892;55.640;37.532;2023-07-29T04:49:24;97699.91;;;17.31;69.25
43298;BME280;28892;55.640;37.532;2023-07-29T04:51:49;97695.09;;;17.38;69.14
43298;BME280;28892;55.640;37.532;2023-07-29T04:54:15;97688.66;;;17.34;69.17
43298;BME280;28892;55.640;37.532;2023-07-29T04:56:41;97696.69;;;17.29;69.39
43298;BME280;28892;55.640;37.532;2023-07-29T04:59:08;97692.69;;;17.47;68.41
43298;BME280;28892;55.640;37.532;2023-07-29T05:01:35;97673.94;;;17.42;68.86
43298;BME280;28892;55.640;37.532;2023-07-29T05:04:01;97675.28;;;17.39;68.14
43298;BME280;28892;55.640;37.532;2023-07-29T05:06:28;97682.81;;;17.48;68.14
43298;BME280;28892;55.640;37.532;2023-07-29T05:08:57;97680.09;;;17.42;69.08
43298;BME280;28892;55.640;37.532;2023-07-29T05:11:24;97674.47;;;17.34;68.98
43298;BME280;28892;55.640;37.532;2023-07-29T05:13:52;97676.88;;;17.40;68.97
43298;BME280;28892;55.640;37.532;2023-07-29T05:16:18;97673.13;;;17.41;69.12
43298;BME280;28892;55.640;37.532;2023-07-29T05:18:44;97661.63;;;17.41;68.80
43298;BME280;28892;55.640;37.532;2023-07-29T05:21:10;97660.53;;;17.47;69.26
43298;BME280;28892;55.640;37.532;2023-07-29T05:23:40;97657.31;;;17.50;68.51
43298;BME280;28892;55.640;37.532;2023-07-29T05:26:11;97653.06;;;17.54;68.35
43298;BME280;28892;55.640;37.532;2023-07-29T05:28:37;97662.16;;;17.58;68.60
43298;BME280;28892;55.640;37.532;2023-07-29T05:31:03;97661.13;;;17.65;68.19
43298;BME280;28892;55.640;37.532;2023-07-29T05:33:30;97658.41;;;17.59;69.35
43298;BME280;28892;55.640;37.532;2023-07-29T05:35:56;97658.97;;;17.51;69.46
43298;BME280;28892;55.640;37.532;2023-07-29T05:38:21;97657.06;;;17.47;69.70
43298;BME280;28892;55.640;37.532;2023-07-29T05:40:50;97663.75;;;17.49;70.56
43298;BME280;28892;55.640;37.532;2023-07-29T05:43:16;97661.66;;;17.72;68.70
43298;BME280;28892;55.640;37.532;2023-07-29T05:45:42;97654.94;;;17.69;68.37
43298;BME280;28892;55.640;37.532;2023-07-29T05:48:10;97664.88;;;17.79;67.98
43298;BME280;28892;55.640;37.532;2023-07-29T05:50:35;97666.19;;;17.77;68.49
43298;BME280;28892;55.640;37.532;2023-07-29T05:53:04;97668.34;;;17.69;68.83
43298;BME280;28892;55.640;37.532;2023-07-29T05:55:35;97667.81;;;17.72;68.66
43298;BME280;28892;55.640;37.532;2023-07-29T05:58:02;97678.00;;;17.86;68.84
43298;BME280;28892;55.640;37.532;2023-07-29T06:00:28;97684.44;;;17.85;69.23
43298;BME280;28892;55.640;37.532;2023-07-29T06:02:55;97678.28;;;17.84;68.33
43298;BME280;28892;55.640;37.532;2023-07-29T06:05:21;97682.84;;;17.84;68.68
43298;BME280;28892;55.640;37.532;2023-07-29T06:07:48;97688.75;;;17.91;68.12
43298;BME280;28892;55.640;37.532;2023-07-29T06:10:15;97693.56;;;17.84;68.90
43298;BME280;28892;55.640;37.532;2023-07-29T06:12:46;97698.13;;;17.78;68.39
43298;BME280;28892;55.640;37.532;2023-07-29T06:15:15;97705.91;;;17.85;69.49
43298;BME280;28892;55.640;37.532;2023-07-29T06:17:42;97710.75;;;17.93;68.81
43298;BME280;28892;55.640;37.532;2023-07-29T06:20:08;97709.38;;;17.91;69.00
43298;BME280;28892;55.640;37.532;2023-07-29T06:22:37;97708.06;;;17.93;68.56
43298;BME280;28892;55.640;37.532;2023-07-29T06:25:04;97711.00;;;18.02;67.95
43298;BME280;28892;55.640;37.532;2023-07-29T06:27:30;97717.44;;;18.01;68.13
43298;BME280;28892;55.640;37.532;2023-07-29T06:29:56;97719.84;;;17.97;67.81
43298;BME280;28892;55.640;37.532;2023-07-29T06:32:25;97722.53;;;17.92;68.70
43298;BME280;28892;55.640;37.532;2023-07-29T06:34:51;97723.59;;;17.86;69.00
43298;BME280;28892;55.640;37.532;2023-07-29T06:37:19;97722.28;;;17.94;68.97
43298;BME280;28892;55.640;37.532;2023-07-29T06:39:48;97724.72;;;18.06;70.03
43298;BME280;28892;55.640;37.532;2023-07-29T06:42:14;97721.75;;;17.97;70.06
43298;BME280;28892;55.640;37.532;2023-07-29T06:44:40;97737.34;;;18.10;70.07
43298;BME280;28892;55.640;37.532;2023-07-29T06:47:06;97730.84;;;18.01;70.34
43298;BME280;28892;55.640;37.532;2023-07-29T06:49:32;97737.84;;;18.02;70.11
43298;BME280;28892;55.640;37.532;2023-07-29T06:51:57;97726.56;;;18.00;70.07
43298;BME280;28892;55.640;37.532;2023-07-29T06:54:26;97735.72;;;18.04;70.37
43298;BME280;28892;55.640;37.532;2023-07-29T06:56:52;97726.88;;;18.04;69.78
43298;BME280;28892;55.640;37.532;2023-07-29T06:59:22;97745.41;;;18.15;70.02
43298;BME280;28892;55.640;37.532;2023-07-29T07:01:50;97735.47;;;18.11;69.73
43298;BME280;28892;55.640;37.532;2023-07-29T07:04:15;97732.47;;;18.02;69.68
43298;BME280;28892;55.640;37.532;2023-07-29T07:06:41;97730.09;;;18.06;70.25
43298;BME280;28892;55.640;37.532;2023-07-29T07:09:07;97732.78;;;18.06;69.93
43298;BME280;28892;55.640;37.532;2023-07-29T07:11:33;97737.09;;;18.12;70.28
43298;BME280;28892;55.640;37.532;2023-07-29T07:13:59;97733.59;;;18.17;70.19
43298;BME280;28892;55.640;37.532;2023-07-29T07:16:25;97738.66;;;18.28;68.96
43298;BME280;28892;55.640;37.532;2023-07-29T07:18:51;97745.91;;;18.23;69.75
43298;BME280;28892;55.640;37.532;2023-07-29T07:21:17;97742.19;;;18.19;69.50
43298;BME280;28892;55.640;37.532;2023-07-29T07:23:46;97733.31;;;18.13;69.94
43298;BME280;28892;55.640;37.532;2023-07-29T07:26:19;97732.78;;;18.11;69.52
43298;BME280;28892;55.640;37.532;2023-07-29T07:28:45;97727.94;;;18.13;69.50
43298;BME280;28892;55.640;37.532;2023-07-29T07:31:11;97735.47;;;18.11;69.74
43298;BME280;28892;55.640;37.532;2023-07-29T07:33:36;97738.13;;;18.06;69.44
43298;BME280;28892;55.640;37.532;2023-07-29T07:36:03;97730.34;;;18.14;69.53
43298;BME280;28892;55.640;37.532;2023-07-29T07:38:28;97734.63;;;18.26;69.35
43298;BME280;28892;55.640;37.532;2023-07-29T07:40:55;97731.72;;;18.33;68.53
43298;BME280;28892;55.640;37.532;2023-07-29T07:43:23;97731.97;;;18.21;69.03
43298;BME280;28892;55.640;37.532;2023-07-29T07:45:48;97744.31;;;18.17;69.56
43298;BME280;28892;55.640;37.532;2023-07-29T07:48:14;97751.56;;;18.11;69.71
43298;BME280;28892;55.640;37.532;2023-07-29T07:50:42;97738.13;;;18.06;69.71
43298;BME280;28892;55.640;37.532;2023-07-29T07:53:08;97730.91;;;18.06;69.73
43298;BME280;28892;55.640;37.532;2023-07-29T07:55:34;97739.50;;;18.08;69.79
43298;BME280;28892;55.640;37.532;2023-07-29T07:58:00;97735.97;;;18.08;69.59
43298;BME280;28892;55.640;37.532;2023-07-29T08:00:26;97743.50;;;18.06;70.20
43298;BME280;28892;55.640;37.532;2023-07-29T08:02:51;97747.28;;;18.15;70.58
43298;BME280;28892;55.640;37.532;2023-07-29T08:05:17;97759.88;;;18.20;69.76
43298;BME280;28892;55.640;37.532;2023-07-29T08:07:43;97745.66;;;18.24;69.21
43298;BME280;28892;55.640;37.532;2023-07-29T08:10:09;97742.97;;;18.09;70.06
43298;BME280;28892;55.640;37.532;2023-07-29T08:12:35;97754.50;;;18.09;69.67
43298;BME280;28892;55.640;37.532;2023-07-29T08:15:01;97743.50;;;18.16;69.83
43298;BME280;28892;55.640;37.532;2023-07-29T08:17:31;97745.13;;;18.33;69.02
43298;BME280;28892;55.640;37.532;2023-07-29T08:19:57;97751.81;;;18.46;68.68
43298;BME280;28892;55.640;37.532;2023-07-29T08:22:23;97748.91;;;18.32;69.35
43298;BME280;28892;55.640;37.532;2023-07-29T08:24:48;97758.78;;;18.36;68.88
43298;BME280;28892;55.640;37.532;2023-07-29T08:27:14;97755.03;;;18.42;69.27
43298;BME280;28892;55.640;37.532;2023-07-29T08:29:40;97755.31;;;18.46;69.14
43298;BME280;28892;55.640;37.532;2023-07-29T08:32:06;97759.88;;;18.35;69.22
43298;BME280;28892;55.640;37.532;2023-07-29T08:34:32;97758.25;;;18.45;68.42
43298;BME280;28892;55.640;37.532;2023-07-29T08:36:57;97741.09;;;18.40;68.81
43298;BME280;28892;55.640;37.532;2023-07-29T08:39:23;97759.63;;;18.32;69.58
43298;BME280;28892;55.640;37.532;2023-07-29T08:41:55;97761.22;;;18.48;69.39
43298;BME280;28892;55.640;37.532;2023-07-29T08:44:26;97764.97;;;18.57;68.90
43298;BME280;28892;55.640;37.532;2023-07-29T08:46:52;97757.72;;;18.48;68.78
43298;BME280;28892;55.640;37.532;2023-07-29T08:49:19;97755.59;;;18.39;69.38
43298;BME280;28892;55.640;37.532;2023-07-29T08:51:47;97760.41;;;18.53;68.25
43298;BME280;28892;55.640;37.532;2023-07-29T08:54:14;97749.66;;;18.63;67.88
43298;BME280;28892;55.640;37.532;2023-07-29T08:56:43;97746.72;;;18.65;67.62
43298;BME280;28892;55.640;37.532;2023-07-29T08:59:09;97741.06;;;18.61;67.08
43298;BME280;28892;55.640;37.532;2023-07-29T09:01:38;97742.69;;;18.62;66.83
43298;BME280;28892;55.640;37.532;2023-07-29T09:04:04;97757.72;;;18.32;68.11
43298;BME280;28892;55.640;37.532;2023-07-29T09:06:31;97746.97;;;18.48;67.82
43298;BME280;28892;55.640;37.532;2023-07-29T09:08:58;97744.84;;;18.45;67.91
43298;BME280;28892;55.640;37.532;2023-07-29T09:11:24;97739.47;;;18.45;67.74
43298;BME280;28892;55.640;37.532;2023-07-29T09:13:50;97756.66;;;18.54;67.96
43298;BME280;28892;55.640;37.532;2023-07-29T09:16:17;97751.53;;;18.57;67.49
43298;BME280;28892;55.640;37.532;2023-07-29T09:18:42;97749.94;;;18.51;67.94
43298;BME280;28892;55.640;37.532;2023-07-29T09:21:08;97752.34;;;18.58;67.21
43298;BME280;28892;55.640;37.532;2023-07-29T09:23:42;97759.06;;;18.61;67.72
43298;BME280;28892;55.640;37.532;2023-07-29T09:26:09;97760.13;;;18.65;66.67
43298;BME280;28892;55.640;37.532;2023-07-29T09:28:37;97764.97;;;18.57;67.95
43298;BME280;28892;55.640;37.532;2023-07-29T09:31:03;97755.84;;;18.53;68.04
43298;BME280;28892;55.640;37.532;2023-07-29T09:33:33;97756.66;;;18.59;67.35
43298;BME280;28892;55.640;37.532;2023-07-29T09:36:00;97748.31;;;18.61;67.06
43298;BME280;28892;55.640;37.532;2023-07-29T09:38:29;97754.50;;;18.61;67.23
43298;BME280;28892;55.640;37.532;2023-07-29T09:40:56;97768.44;;;18.58;67.52
43298;BME280;28892;55.640;37.532;2023-07-29T09:43:30;97766.03;;;18.67;68.26
43298;BME280;28892;55.640;37.532;2023-07-29T09:46:04;97765.75;;;18.74;67.77
43298;BME280;28892;55.640;37.532;2023-07-29T09:48:37;97778.91;;;18.75;67.92
43298;BME280;28892;55.640;37.532;2023-07-29T09:51:12;97773.78;;;18.79;67.35
43298;BME280;28892;55.640;37.532;2023-07-29T09:53:43;97769.50;;;18.67;67.32
43298;BME280;28892;55.640;37.532;2023-07-29T09:56:09;97780.00;;;18.69;67.65
43298;BME280;28892;55.640;37.532;2023-07-29T09:58:36;97768.69;;;18.77;67.12
43298;BME280;28892;55.640;37.532;2023-07-29T10:01:07;97784.28;;;18.80;67.15
43298;BME280;28892;55.640;37.532;2023-07-29T10:03:34;97784.81;;;18.88;67.16
43298;BME280;28892;55.640;37.532;2023-07-29T10:06:02;97782.38;;;18.86;67.09
43298;BME280;28892;55.640;37.532;2023-07-29T10:08:30;97782.66;;;18.74;67.25
43298;BME280;28892;55.640;37.532;2023-07-29T10:11:01;97781.06;;;18.73;67.26
43298;BME280;28892;55.640;37.532;2023-07-29T10:13:27;97781.84;;;18.79;66.28
43298;BME280;28892;55.640;37.532;2023-07-29T10:15:53;97777.56;;;18.67;66.69
43298;BME280;28892;55.640;37.532;2023-07-29T10:18:20;97776.78;;;18.46;67.96
43298;BME280;28892;55.640;37.532;2023-07-29T10:20:50;97783.50;;;18.43;67.71
43298;BME280;28892;55.640;37.532;2023-07-29T10:23:17;97783.75;;;18.47;68.41
43298;BME280;28892;55.640;37.532;2023-07-29T10:25:51;97793.16;;;18.55;68.23
43298;BME280;28892;55.640;37.532;2023-07-29T10:28:20;97782.69;;;18.53;68.32
43298;BME280;28892;55.640;37.532;2023-07-29T10:30:54;97782.44;;;18.50;68.91
43298;BME280;28892;55.640;37.532;2023-07-29T10:33:36;97771.69;;;18.60;69.05
43298;BME280;28892;55.640;37.532;2023-07-29T10:36:04;97778.34;;;18.73;68.19
43298;BME280;28892;55.640;37.532;2023-07-29T10:38:30;97779.97;;;18.74;67.52
43298;BME280;28892;55.640;37.532;2023-07-29T10:40:57;97771.66;;;18.76;67.69
43298;BME280;28892;55.640;37.532;2023-07-29T10:43:35;97764.94;;;18.73;68.10
43298;BME280;28892;55.640;37.532;2023-07-29T10:46:19;97768.97;;;18.76;68.93
43298;BME280;28892;55.640;37.532;2023-07-29T10:48:56;97774.63;;;18.69;68.72
43298;BME280;28892;55.640;37.532;2023-07-29T10:51:30;97775.69;;;18.63;68.68
43298;BME280;28892;55.640;37.532;2023-07-29T10:54:01;97772.47;;;18.71;68.58
43298;BME280;28892;55.640;37.532;2023-07-29T10:56:33;97773.50;;;18.85;67.86
43298;BME280;28892;55.640;37.532;2023-07-29T11:01:56;97777.81;;;18.87;67.65
43298;BME280;28892;55.640;37.532;2023-07-29T11:04:26;97783.47;;;18.75;68.11
43298;BME280;28892;55.640;37.532;2023-07-29T11:15:28;97780.75;;;18.90;68.37
43298;BME280;28892;55.640;37.532;2023-07-29T11:17:55;97774.59;;;18.79;67.75
43298;BME280;28892;55.640;37.532;2023-07-29T11:20:26;97781.00;;;18.94;67.68
43298;BME280;28892;55.640;37.532;2023-07-29T11:22:54;97779.94;;;18.95;67.31
43298;BME280;28892;55.640;37.532;2023-07-29T11:25:22;97785.84;;;19.07;67.56
43298;BME280;28892;55.640;37.532;2023-07-29T11:27:51;97778.81;;;19.17;67.41
43298;BME280;28892;55.640;37.532;2023-07-29T11:30:17;97780.91;;;19.35;67.00
43298;BME280;28892;55.640;37.532;2023-07-29T11:32:44;97783.31;;;19.42;66.29
43298;BME280;28892;55.640;37.532;2023-07-29T11:35:17;97787.34;;;19.39;67.37
43298;BME280;28892;55.640;37.532;2023-07-29T11:37:45;97797.84;;;19.41;66.73
43298;BME280;28892;55.640;37.532;2023-07-29T11:40:16;97805.09;;;19.40;66.68
43298;BME280;28892;55.640;37.532;2023-07-29T11:42:47;97804.03;;;19.42;66.39
43298;BME280;28892;55.640;37.532;2023-07-29T11:45:14;97812.13;;;19.26;66.33
43298;BME280;28892;55.640;37.532;2023-07-29T11:47:40;97825.84;;;19.24;66.59
43298;BME280;28892;55.640;37.532;2023-07-29T11:50:10;97821.53;;;19.29;66.64
43298;BME280;28892;55.640;37.532;2023-07-29T11:52:40;97819.69;;;19.19;67.20
43298;BME280;28892;55.640;37.532;2023-07-29T11:55:06;97825.84;;;19.24;66.28
43298;BME280;28892;55.640;37.532;2023-07-29T11:57:35;97820.19;;;19.26;66.16
43298;BME280;28892;55.640;37.532;2023-07-29T12:00:09;97817.66;;;19.55;64.93
43298;BME280;28892;55.640;37.532;2023-07-29T12:02:40;97829.78;;;19.48;65.45
43298;BME280;28892;55.640;37.532;2023-07-29T12:05:09;97816.38;;;19.37;64.74
43298;BME280;28892;55.640;37.532;2023-07-29T12:07:38;97818.81;;;19.34;65.66
43298;BME280;28892;55.640;37.532;2023-07-29T12:10:05;97808.91;;;19.24;64.82
43298;BME280;28892;55.640;37.532;2023-07-29T12:12:32;97818.00;;;19.38;64.29
43298;BME280;28892;55.640;37.532;2023-07-29T12:14:58;97808.63;;;19.36;64.48
43298;BME280;28892;55.640;37.532;2023-07-29T12:17:28;97803.72;;;19.43;64.85
43298;BME280;28892;55.640;37.532;2023-07-29T12:19:57;97800.78;;;19.39;64.72
43298;BME280;28892;55.640;37.532;2023-07-29T12:22:25;97805.09;;;19.40;65.22
43298;BME280;28892;55.640;37.532;2023-07-29T12:24:51;97815.03;;;19.40;64.68
43298;BME280;28892;55.640;37.532;2023-07-29T12:27:21;97806.72;;;19.36;65.14
43298;BME280;28892;55.640;37.532;2023-07-29T12:29:47;97812.91;;;19.32;65.57
43298;BME280;28892;55.640;37.532;2023-07-29T12:32:14;97794.34;;;19.35;65.25
43298;BME280;28892;55.640;37.532;2023-07-29T12:34:40;97790.59;;;19.42;65.18
43298;BME280;28892;55.640;37.532;2023-07-29T12:37:06;97803.69;;;19.53;64.93
43298;BME280;28892;55.640;37.532;2023-07-29T12:39:34;97794.53;;;19.54;64.46
43298;BME280;28892;55.640;37.532;2023-07-29T12:42:01;97796.44;;;19.49;65.27
43298;BME280;28892;55.640;37.532;2023-07-29T12:44:35;97800.69;;;19.65;64.90
43298;BME280;28892;55.640;37.532;2023-07-29T12:47:02;97802.31;;;19.61;64.22
43298;BME280;28892;55.640;37.532;2023-07-29T12:49:30;97805.84;;;19.51;64.69
43298;BME280;28892;55.640;37.532;2023-07-29T12:51:56;97801.56;;;19.45;65.32
43298;BME280;28892;55.640;37.532;2023-07-29T12:54:23;97793.53;;;19.40;64.76
43298;BME280;28892;55.640;37.532;2023-07-29T12:56:48;97794.34;;;19.35;64.83
43298;BME280;28892;55.640;37.532;2023-07-29T12:59:14;97804.59;;;19.33;64.86
43298;BME280;28892;55.640;37.532;2023-07-29T13:01:40;97794.31;;;19.51;63.33
43298;BME280;28892;55.640;37.532;2023-07-29T13:04:06;97807.25;;;19.44;64.00
43298;BME280;28892;55.640;37.532;2023-07-29T13:06:32;97803.53;;;19.29;63.78